sensor_id;sensor_type;location;lat;lon;timestamp;pressure;altitude;pressure_sealevel;temperature;humidity
8705;BME280;4389;41.932;25.904;2023-05-16T00:01:57;100369.97;;;15.26;100.00
8705;BME280;4389;41.932;25.904;2023-05-16T00:04:24;100374.31;;;15.11;100.00
8705;BME280;4389;41.932;25.904;2023-05-16T00:06:51;100369.50;;;15.14;100.00
8705;BME280;4389;41.932;25.904;2023-05-16T00:09:19;100374.31;;;15.19;100.00
8705;BME280;4389;41.932;25.904;2023-05-16T00:11:46;100369.97;;;15.18;100.00
8705;BME280;4389;41.932;25.904;2023-05-16T00:14:14;100364.31;;;15.05;100.00
8705;BME280;4389;41.932;25.904;2023-05-16T00:16:41;100364.66;;;15.18;100.00
8705;BME280;4389;41.932;25.904;2023-05-16T00:19:08;100364.97;;;15.15;100.00
8705;BME280;4389;41.932;25.904;2023-05-16T00:21:35;100363.31;;;15.14;100.00
8705;BME280;4389;41.932;25.904;2023-05-16T00:24:03;100360.31;;;15.01;100.00
8705;BME280;4389;41.932;25.904;2023-05-16T00:26:31;100353.66;;;14.89;100.00
8705;BME280;4389;41.932;25.904;2023-05-16T00:28:58;100357.34;;;15.04;100.00
8705;BME280;4389;41.932;25.904;2023-05-16T00:31:25;100351.66;;;15.07;100.00
8705;BME280;4389;41.932;25.904;2023-05-16T00:33:51;100340.31;;;15.13;100.00
8705;BME280;4389;41.932;25.904;2023-05-16T00:36:19;100342.34;;;15.11;100.00
8705;BME280;4389;41.932;25.904;2023-05-16T00:38:46;100335.16;;;15.11;100.00
8705;BME280;4389;41.932;25.904;2023-05-16T00:41:13;100337.00;;;15.11;100.00
8705;BME280;4389;41.932;25.904;2023-05-16T00:43:41;100339.66;;;15.11;100.00
8705;BME280;4389;41.932;25.904;2023-05-16T00:46:08;100342.34;;;15.03;100.00
8705;BME280;4389;41.932;25.904;2023-05-16T00:48:35;100339.84;;;14.93;100.00
8705;BME280;4389;41.932;25.904;2023-05-16T00:51:02;100343.00;;;14.89;100.00
8705;BME280;4389;41.932;25.904;2023-05-16T00:53:34;100344.69;;;14.82;100.00
8705;BME280;4389;41.932;25.904;2023-05-16T00:56:01;100341.66;;;14.77;100.00
8705;BME280;4389;41.932;25.904;2023-05-16T00:58:29;100338.66;;;14.72;100.00
8705;BME280;4389;41.932;25.904;2023-05-16T01:00:58;100334.34;;;14.55;100.00
8705;BME280;4389;41.932;25.904;2023-05-16T01:03:26;100336.00;;;14.56;100.00
8705;BME280;4389;41.932;25.904;2023-05-16T01:05:53;100332.97;;;14.51;100.00
8705;BME280;4389;41.932;25.904;2023-05-16T01:08:20;100333.69;;;14.53;100.00
8705;BME280;4389;41.932;25.904;2023-05-16T01:10:58;100341.66;;;14.53;100.00
8705;BME280;4389;41.932;25.904;2023-05-16T01:13:30;100339.63;;;14.39;100.00
8705;BME280;4389;41.932;25.904;2023-05-16T01:16:04;100332.66;;;14.54;100.00
8705;BME280;4389;41.932;25.904;2023-05-16T01:18:41;100326.50;;;14.53;100.00
8705;BME280;4389;41.932;25.904;2023-05-16T01:21:11;100333.16;;;14.49;100.00
8705;BME280;4389;41.932;25.904;2023-05-16T01:23:50;100341.94;;;14.34;100.00
8705;BME280;4389;41.932;25.904;2023-05-16T01:26:21;100344.84;;;14.15;100.00
8705;BME280;4389;41.932;25.904;2023-05-16T01:28:49;100340.19;;;14.17;100.00
8705;BME280;4389;41.932;25.904;2023-05-16T01:31:16;100331.28;;;14.18;100.00
8705;BME280;4389;41.932;25.904;2023-05-16T01:33:43;100325.72;;;14.11;100.00
8705;BME280;4389;41.932;25.904;2023-05-16T01:36:21;100317.88;;;14.10;100.00
8705;BME280;4389;41.932;25.904;2023-05-16T01:38:58;100336.88;;;14.15;100.00
8705;BME280;4389;41.932;25.904;2023-05-16T01:41:38;100334.88;;;14.17;100.00
8705;BME280;4389;41.932;25.904;2023-05-16T01:44:12;100334.25;;;14.23;100.00
8705;BME280;4389;41.932;25.904;2023-05-16T01:46:44;100338.25;;;14.19;100.00
8705;BME280;4389;41.932;25.904;2023-05-16T01:49:15;100339.34;;;14.08;100.00
8705;BME280;4389;41.932;25.904;2023-05-16T01:51:44;100334.19;;;14.07;100.00
8705;BME280;4389;41.932;25.904;2023-05-16T01:54:17;100331.84;;;13.96;100.00
8705;BME280;4389;41.932;25.904;2023-05-16T01:56:50;100327.84;;;14.00;100.00
8705;BME280;4389;41.932;25.904;2023-05-16T01:59:19;100314.06;;;14.12;100.00
8705;BME280;4389;41.932;25.904;2023-05-16T02:01:46;100320.25;;;14.13;100.00
8705;BME280;4389;41.932;25.904;2023-05-16T02:04:13;100319.47;;;13.87;100.00
8705;BME280;4389;41.932;25.904;2023-05-16T02:06:40;100328.16;;;13.89;100.00
8705;BME280;4389;41.932;25.904;2023-05-16T02:09:07;100306.19;;;13.87;100.00
8705;BME280;4389;41.932;25.904;2023-05-16T02:11:34;100299.72;;;13.89;100.00
8705;BME280;4389;41.932;25.904;2023-05-16T02:14:02;100305.53;;;13.85;100.00
8705;BME280;4389;41.932;25.904;2023-05-16T02:16:29;100300.47;;;13.74;100.00
8705;BME280;4389;41.932;25.904;2023-05-16T02:18:56;100289.53;;;13.77;100.00
8705;BME280;4389;41.932;25.904;2023-05-16T02:21:23;100299.44;;;13.67;100.00
8705;BME280;4389;41.932;25.904;2023-05-16T02:23:50;100300.28;;;13.68;100.00
8705;BME280;4389;41.932;25.904;2023-05-16T02:26:17;100292.50;;;13.74;100.00
8705;BME280;4389;41.932;25.904;2023-05-16T02:28:44;100294.13;;;13.67;100.00
8705;BME280;4389;41.932;25.904;2023-05-16T02:31:12;100288.50;;;13.70;100.00
8705;BME280;4389;41.932;25.904;2023-05-16T02:33:38;100287.38;;;13.73;100.00
8705;BME280;4389;41.932;25.904;2023-05-16T02:36:06;100288.91;;;13.83;100.00
8705;BME280;4389;41.932;25.904;2023-05-16T02:38:33;100286.38;;;13.81;100.00
8705;BME280;4389;41.932;25.904;2023-05-16T02:41:00;100287.22;;;13.82;100.00
8705;BME280;4389;41.932;25.904;2023-05-16T02:43:27;100275.25;;;13.86;100.00
8705;BME280;4389;41.932;25.904;2023-05-16T02:45:53;100286.50;;;13.64;100.00
8705;BME280;4389;41.932;25.904;2023-05-16T02:48:22;100273.25;;;13.80;100.00
8705;BME280;4389;41.932;25.904;2023-05-16T02:50:49;100273.59;;;13.77;100.00
8705;BME280;4389;41.932;25.904;2023-05-16T02:53:16;100267.41;;;13.76;100.00
8705;BME280;4389;41.932;25.904;2023-05-16T02:55:43;100266.56;;;13.68;100.00
8705;BME280;4389;41.932;25.904;2023-05-16T02:58:10;100265.41;;;13.70;100.00
8705;BME280;4389;41.932;25.904;2023-05-16T03:00:36;100262.94;;;13.77;100.00
8705;BME280;4389;41.932;25.904;2023-05-16T03:03:03;100254.31;;;13.75;100.00
8705;BME280;4389;41.932;25.904;2023-05-16T03:05:31;100261.44;;;13.74;100.00
8705;BME280;4389;41.932;25.904;2023-05-16T03:07:58;100263.25;;;13.74;100.00
8705;BME280;4389;41.932;25.904;2023-05-16T03:10:26;100256.28;;;13.73;100.00
8705;BME280;4389;41.932;25.904;2023-05-16T03:12:52;100257.22;;;13.56;100.00
8705;BME280;4389;41.932;25.904;2023-05-16T03:15:19;100263.47;;;13.39;100.00
8705;BME280;4389;41.932;25.904;2023-05-16T03:17:46;100253.81;;;13.38;100.00
8705;BME280;4389;41.932;25.904;2023-05-16T03:20:13;100257.81;;;13.42;100.00
8705;BME280;4389;41.932;25.904;2023-05-16T03:22:41;100261.47;;;13.41;100.00
8705;BME280;4389;41.932;25.904;2023-05-16T03:25:09;100262.50;;;13.48;100.00
8705;BME280;4389;41.932;25.904;2023-05-16T03:27:36;100261.19;;;13.60;100.00
8705;BME280;4389;41.932;25.904;2023-05-16T03:30:03;100259.25;;;13.62;100.00
8705;BME280;4389;41.932;25.904;2023-05-16T03:32:30;100264.44;;;13.72;100.00
8705;BME280;4389;41.932;25.904;2023-05-16T03:34:57;100253.59;;;13.73;100.00
8705;BME280;4389;41.932;25.904;2023-05-16T03:37:24;100251.84;;;13.89;100.00
8705;BME280;4389;41.932;25.904;2023-05-16T03:39:52;100253.69;;;13.97;100.00
8705;BME280;4389;41.932;25.904;2023-05-16T03:42:19;100251.72;;;14.07;100.00
8705;BME280;4389;41.932;25.904;2023-05-16T03:44:46;100255.75;;;14.27;100.00
8705;BME280;4389;41.932;25.904;2023-05-16T03:47:13;100260.09;;;14.52;100.00
8705;BME280;4389;41.932;25.904;2023-05-16T03:49:40;100249.25;;;14.77;98.99
8705;BME280;4389;41.932;25.904;2023-05-16T03:52:07;100259.41;;;14.90;97.88
8705;BME280;4389;41.932;25.904;2023-05-16T03:54:34;100265.38;;;15.00;97.38
8705;BME280;4389;41.932;25.904;2023-05-16T03:57:02;100256.75;;;14.98;96.52
8705;BME280;4389;41.932;25.904;2023-05-16T03:59:29;100260.22;;;14.90;97.15
8705;BME280;4389;41.932;25.904;2023-05-16T04:01:56;100254.38;;;14.95;97.38
8705;BME280;4389;41.932;25.904;2023-05-16T04:04:23;100270.03;;;15.06;97.02
8705;BME280;4389;41.932;25.904;2023-05-16T04:06:50;100261.03;;;15.15;96.67
8705;BME280;4389;41.932;25.904;2023-05-16T04:09:17;100268.00;;;15.24;95.79
8705;BME280;4389;41.932;25.904;2023-05-16T04:11:44;100269.19;;;15.21;95.69
8705;BME280;4389;41.932;25.904;2023-05-16T04:14:12;100270.34;;;15.35;95.15
8705;BME280;4389;41.932;25.904;2023-05-16T04:16:40;100269.44;;;15.89;94.55
8705;BME280;4389;41.932;25.904;2023-05-16T04:19:06;100281.00;;;16.12;92.26
8705;BME280;4389;41.932;25.904;2023-05-16T04:21:33;100282.91;;;16.26;91.02
8705;BME280;4389;41.932;25.904;2023-05-16T04:24:01;100277.56;;;16.26;91.52
8705;BME280;4389;41.932;25.904;2023-05-16T04:26:28;100280.28;;;16.18;92.51
8705;BME280;4389;41.932;25.904;2023-05-16T04:28:56;100287.75;;;16.22;92.36
8705;BME280;4389;41.932;25.904;2023-05-16T04:31:24;100290.34;;;16.08;91.48
8705;BME280;4389;41.932;25.904;2023-05-16T04:33:52;100289.88;;;15.66;93.65
8705;BME280;4389;41.932;25.904;2023-05-16T04:36:19;100301.38;;;16.05;93.37
8705;BME280;4389;41.932;25.904;2023-05-16T04:38:46;100291.63;;;16.20;93.00
8705;BME280;4389;41.932;25.904;2023-05-16T04:41:13;100294.53;;;16.33;91.56
8705;BME280;4389;41.932;25.904;2023-05-16T04:43:43;100297.75;;;16.28;91.97
8705;BME280;4389;41.932;25.904;2023-05-16T04:46:10;100294.44;;;16.49;91.47
8705;BME280;4389;41.932;25.904;2023-05-16T04:48:38;100294.59;;;16.55;90.36
8705;BME280;4389;41.932;25.904;2023-05-16T04:51:05;100295.16;;;16.65;91.14
8705;BME280;4389;41.932;25.904;2023-05-16T04:53:32;100289.22;;;16.78;90.28
8705;BME280;4389;41.932;25.904;2023-05-16T04:55:58;100293.97;;;16.68;90.77
8705;BME280;4389;41.932;25.904;2023-05-16T04:58:25;100289.06;;;16.94;90.16
8705;BME280;4389;41.932;25.904;2023-05-16T05:00:53;100290.00;;;17.01;89.03
8705;BME280;4389;41.932;25.904;2023-05-16T05:03:20;100292.44;;;17.25;87.65
8705;BME280;4389;41.932;25.904;2023-05-16T05:05:48;100289.22;;;17.29;87.63
8705;BME280;4389;41.932;25.904;2023-05-16T05:08:15;100288.13;;;17.67;86.48
8705;BME280;4389;41.932;25.904;2023-05-16T05:10:42;100287.63;;;17.93;85.40
8705;BME280;4389;41.932;25.904;2023-05-16T05:13:09;100288.34;;;18.16;84.07
8705;BME280;4389;41.932;25.904;2023-05-16T05:15:36;100292.00;;;18.15;84.55
8705;BME280;4389;41.932;25.904;2023-05-16T05:18:03;100286.66;;;18.15;84.17
8705;BME280;4389;41.932;25.904;2023-05-16T05:20:30;100296.03;;;18.40;83.50
8705;BME280;4389;41.932;25.904;2023-05-16T05:22:58;100295.44;;;18.59;82.32
8705;BME280;4389;41.932;25.904;2023-05-16T05:25:25;100289.16;;;18.52;82.63
8705;BME280;4389;41.932;25.904;2023-05-16T05:27:52;100274.03;;;18.92;82.61
8705;BME280;4389;41.932;25.904;2023-05-16T05:30:19;100272.34;;;19.12;80.75
8705;BME280;4389;41.932;25.904;2023-05-16T05:32:45;100277.25;;;19.30;80.28
8705;BME280;4389;41.932;25.904;2023-05-16T05:35:12;100273.53;;;19.31;80.53
8705;BME280;4389;41.932;25.904;2023-05-16T05:37:40;100283.97;;;19.47;80.02
8705;BME280;4389;41.932;25.904;2023-05-16T05:40:09;100276.13;;;19.18;80.24
8705;BME280;4389;41.932;25.904;2023-05-16T05:42:36;100287.38;;;19.34;79.78
8705;BME280;4389;41.932;25.904;2023-05-16T05:45:04;100283.63;;;19.22;80.73
8705;BME280;4389;41.932;25.904;2023-05-16T05:47:32;100287.53;;;19.26;81.58
8705;BME280;4389;41.932;25.904;2023-05-16T05:49:59;100284.09;;;19.32;81.33
8705;BME280;4389;41.932;25.904;2023-05-16T05:52:27;100282.53;;;19.44;80.88
8705;BME280;4389;41.932;25.904;2023-05-16T05:54:54;100276.13;;;19.18;81.91
8705;BME280;4389;41.932;25.904;2023-05-16T05:57:22;100281.47;;;19.45;81.66
8705;BME280;4389;41.932;25.904;2023-05-16T05:59:48;100280.19;;;19.35;81.93
8705;BME280;4389;41.932;25.904;2023-05-16T06:02:15;100275.28;;;19.17;83.36
8705;BME280;4389;41.932;25.904;2023-05-16T06:04:42;100276.94;;;19.18;83.31
8705;BME280;4389;41.932;25.904;2023-05-16T06:07:09;100275.69;;;19.14;83.78
8705;BME280;4389;41.932;25.904;2023-05-16T06:09:36;100271.00;;;19.23;83.27
8705;BME280;4389;41.932;25.904;2023-05-16T06:12:03;100274.25;;;18.91;84.29
8705;BME280;4389;41.932;25.904;2023-05-16T06:14:32;100265.22;;;18.98;84.46
8705;BME280;4389;41.932;25.904;2023-05-16T06:16:58;100264.78;;;18.95;85.25
8705;BME280;4389;41.932;25.904;2023-05-16T06:19:25;100261.81;;;18.83;85.66
8705;BME280;4389;41.932;25.904;2023-05-16T06:21:58;100268.72;;;18.72;85.34
8705;BME280;4389;41.932;25.904;2023-05-16T06:24:25;100264.66;;;18.55;86.27
8705;BME280;4389;41.932;25.904;2023-05-16T06:26:54;100268.66;;;18.65;86.94
8705;BME280;4389;41.932;25.904;2023-05-16T06:29:21;100253.78;;;18.63;86.82
8705;BME280;4389;41.932;25.904;2023-05-16T06:31:49;100260.81;;;18.64;87.12
8705;BME280;4389;41.932;25.904;2023-05-16T06:34:16;100260.00;;;18.63;87.72
8705;BME280;4389;41.932;25.904;2023-05-16T06:36:43;100257.22;;;18.77;88.00
8705;BME280;4389;41.932;25.904;2023-05-16T06:39:10;100260.03;;;18.70;87.37
8705;BME280;4389;41.932;25.904;2023-05-16T06:41:36;100256.56;;;18.96;87.02
8705;BME280;4389;41.932;25.904;2023-05-16T06:44:03;100258.13;;;19.39;85.16
8705;BME280;4389;41.932;25.904;2023-05-16T06:46:30;100259.81;;;19.47;83.71
8705;BME280;4389;41.932;25.904;2023-05-16T06:48:59;100256.91;;;19.48;83.87
8705;BME280;4389;41.932;25.904;2023-05-16T06:51:26;100254.53;;;19.66;83.74
8705;BME280;4389;41.932;25.904;2023-05-16T06:53:52;100246.75;;;19.84;82.55
8705;BME280;4389;41.932;25.904;2023-05-16T06:56:19;100241.94;;;20.07;81.73
8705;BME280;4389;41.932;25.904;2023-05-16T06:58:47;100250.22;;;20.19;80.69
8705;BME280;4389;41.932;25.904;2023-05-16T07:01:14;100247.78;;;20.43;79.71
8705;BME280;4389;41.932;25.904;2023-05-16T07:03:40;100241.97;;;20.27;79.34
8705;BME280;4389;41.932;25.904;2023-05-16T07:06:09;100242.81;;;20.34;80.28
8705;BME280;4389;41.932;25.904;2023-05-16T07:08:35;100244.63;;;20.07;80.12
8705;BME280;4389;41.932;25.904;2023-05-16T07:11:02;100243.78;;;20.07;80.99
8705;BME280;4389;41.932;25.904;2023-05-16T07:13:29;100244.63;;;20.07;80.80
8705;BME280;4389;41.932;25.904;2023-05-16T07:15:56;100240.59;;;19.90;81.71
8705;BME280;4389;41.932;25.904;2023-05-16T07:18:23;100236.00;;;19.84;81.38
8705;BME280;4389;41.932;25.904;2023-05-16T07:20:50;100227.34;;;19.89;80.60
8705;BME280;4389;41.932;25.904;2023-05-16T07:23:18;100228.78;;;19.78;79.25
8705;BME280;4389;41.932;25.904;2023-05-16T07:25:44;100230.03;;;19.82;78.34
8705;BME280;4389;41.932;25.904;2023-05-16T07:28:11;100233.97;;;19.86;78.93
8705;BME280;4389;41.932;25.904;2023-05-16T07:30:38;100233.59;;;20.02;79.99
8705;BME280;4389;41.932;25.904;2023-05-16T07:33:05;100240.72;;;20.16;78.41
8705;BME280;4389;41.932;25.904;2023-05-16T07:35:32;100240.72;;;20.16;78.85
8705;BME280;4389;41.932;25.904;2023-05-16T07:37:58;100240.53;;;20.37;78.97
8705;BME280;4389;41.932;25.904;2023-05-16T07:40:27;100234.97;;;20.58;77.73
8705;BME280;4389;41.932;25.904;2023-05-16T07:42:53;100240.34;;;20.45;77.50
8705;BME280;4389;41.932;25.904;2023-05-16T07:45:20;100232.28;;;21.10;76.49
8705;BME280;4389;41.932;25.904;2023-05-16T07:47:47;100236.22;;;20.95;76.75
8705;BME280;4389;41.932;25.904;2023-05-16T07:50:14;100232.25;;;21.36;75.93
8705;BME280;4389;41.932;25.904;2023-05-16T07:52:41;100226.03;;;21.29;75.43
8705;BME280;4389;41.932;25.904;2023-05-16T07:55:08;100216.72;;;21.25;75.50
8705;BME280;4389;41.932;25.904;2023-05-16T07:57:36;100208.00;;;21.36;75.56
8705;BME280;4389;41.932;25.904;2023-05-16T08:00:04;100192.63;;;21.56;75.01
8705;BME280;4389;41.932;25.904;2023-05-16T08:02:31;100190.56;;;21.45;75.23
8705;BME280;4389;41.932;25.904;2023-05-16T08:04:58;100181.53;;;21.27;76.53
8705;BME280;4389;41.932;25.904;2023-05-16T08:07:25;100188.50;;;21.47;76.96
8705;BME280;4389;41.932;25.904;2023-05-16T08:09:52;100177.41;;;22.12;73.66
8705;BME280;4389;41.932;25.904;2023-05-16T08:12:19;100173.88;;;22.43;73.27
8705;BME280;4389;41.932;25.904;2023-05-16T08:14:47;100166.53;;;22.81;71.51
8705;BME280;4389;41.932;25.904;2023-05-16T08:17:14;100167.06;;;23.07;70.13
8705;BME280;4389;41.932;25.904;2023-05-16T08:19:41;100164.84;;;22.80;70.65
8705;BME280;4389;41.932;25.904;2023-05-16T08:22:08;100178.94;;;23.24;70.70
8705;BME280;4389;41.932;25.904;2023-05-16T08:24:35;100165.59;;;23.29;69.38
8705;BME280;4389;41.932;25.904;2023-05-16T08:27:02;100146.66;;;22.93;70.00
8705;BME280;4389;41.932;25.904;2023-05-16T08:29:29;100159.22;;;22.63;71.47
8705;BME280;4389;41.932;25.904;2023-05-16T08:31:57;100178.13;;;22.81;70.91
8705;BME280;4389;41.932;25.904;2023-05-16T08:34:24;100162.69;;;22.88;69.96
8705;BME280;4389;41.932;25.904;2023-05-16T08:36:51;100169.09;;;23.12;69.48
8705;BME280;4389;41.932;25.904;2023-05-16T08:39:18;100181.78;;;23.47;67.94
8705;BME280;4389;41.932;25.904;2023-05-16T08:41:45;100171.06;;;23.23;68.41
8705;BME280;4389;41.932;25.904;2023-05-16T08:44:12;100196.72;;;22.89;70.53
8705;BME280;4389;41.932;25.904;2023-05-16T08:46:49;100180.31;;;23.15;68.59
8705;BME280;4389;41.932;25.904;2023-05-16T08:49:19;100183.69;;;23.04;69.35
8705;BME280;4389;41.932;25.904;2023-05-16T08:51:46;100186.63;;;23.27;69.64
8705;BME280;4389;41.932;25.904;2023-05-16T08:54:14;100194.63;;;23.16;68.42
8705;BME280;4389;41.932;25.904;2023-05-16T08:56:42;100196.16;;;23.05;68.79
8705;BME280;4389;41.932;25.904;2023-05-16T08:59:10;100191.41;;;22.83;68.50
8705;BME280;4389;41.932;25.904;2023-05-16T09:01:37;100184.59;;;22.56;70.22
8705;BME280;4389;41.932;25.904;2023-05-16T09:04:07;100195.97;;;22.58;69.65
8705;BME280;4389;41.932;25.904;2023-05-16T09:06:35;100188.81;;;23.12;67.11
8705;BME280;4389;41.932;25.904;2023-05-16T09:09:03;100184.94;;;22.84;67.38
8705;BME280;4389;41.932;25.904;2023-05-16T09:11:32;100197.28;;;22.98;67.12
8705;BME280;4389;41.932;25.904;2023-05-16T09:13:59;100190.28;;;22.90;67.00
8705;BME280;4389;41.932;25.904;2023-05-16T09:16:26;100182.34;;;23.20;65.73
8705;BME280;4389;41.932;25.904;2023-05-16T09:18:54;100192.72;;;22.98;65.97
8705;BME280;4389;41.932;25.904;2023-05-16T09:21:25;100181.19;;;23.45;64.05
8705;BME280;4389;41.932;25.904;2023-05-16T09:23:53;100170.25;;;23.58;64.60
8705;BME280;4389;41.932;25.904;2023-05-16T09:26:21;100180.88;;;22.99;64.83
8705;BME280;4389;41.932;25.904;2023-05-16T09:28:52;100175.94;;;23.32;63.88
8705;BME280;4389;41.932;25.904;2023-05-16T09:31:20;100176.56;;;23.34;64.20
8705;BME280;4389;41.932;25.904;2023-05-16T09:33:48;100172.81;;;23.83;63.06
8705;BME280;4389;41.932;25.904;2023-05-16T09:36:15;100171.16;;;24.00;60.28
8705;BME280;4389;41.932;25.904;2023-05-16T09:38:42;100163.25;;;24.39;60.77
8705;BME280;4389;41.932;25.904;2023-05-16T09:41:12;100151.44;;;24.11;60.63
8705;BME280;4389;41.932;25.904;2023-05-16T09:43:40;100154.97;;;24.11;60.87
8705;BME280;4389;41.932;25.904;2023-05-16T09:46:11;100153.06;;;24.00;61.46
8705;BME280;4389;41.932;25.904;2023-05-16T09:48:40;100147.72;;;24.46;61.45
8705;BME280;4389;41.932;25.904;2023-05-16T09:51:07;100143.69;;;24.66;58.91
8705;BME280;4389;41.932;25.904;2023-05-16T09:53:34;100146.38;;;25.01;58.42
8705;BME280;4389;41.932;25.904;2023-05-16T09:56:04;100149.28;;;25.11;58.86
8705;BME280;4389;41.932;25.904;2023-05-16T09:58:35;100147.75;;;25.15;58.17
8705;BME280;4389;41.932;25.904;2023-05-16T10:01:02;100155.16;;;25.54;57.57
8705;BME280;4389;41.932;25.904;2023-05-16T10:03:29;100145.44;;;25.86;55.44
8705;BME280;4389;41.932;25.904;2023-05-16T10:05:56;100140.16;;;25.91;56.05
8705;BME280;4389;41.932;25.904;2023-05-16T10:08:25;100135.84;;;25.67;57.00
8705;BME280;4389;41.932;25.904;2023-05-16T10:10:53;100126.94;;;25.94;55.70
8705;BME280;4389;41.932;25.904;2023-05-16T10:13:22;100132.53;;;26.04;56.31
8705;BME280;4389;41.932;25.904;2023-05-16T10:15:54;100132.56;;;25.65;57.02
8705;BME280;4389;41.932;25.904;2023-05-16T10:18:22;100119.28;;;25.01;60.06
8705;BME280;4389;41.932;25.904;2023-05-16T10:20:52;100118.69;;;25.10;59.72
8705;BME280;4389;41.932;25.904;2023-05-16T10:23:20;100111.31;;;25.45;57.87
8705;BME280;4389;41.932;25.904;2023-05-16T10:25:48;100108.84;;;26.00;55.56
8705;BME280;4389;41.932;25.904;2023-05-16T10:28:15;100095.19;;;25.95;56.96
8705;BME280;4389;41.932;25.904;2023-05-16T10:30:44;100081.63;;;25.67;58.02
8705;BME280;4389;41.932;25.904;2023-05-16T10:33:14;100068.53;;;25.47;58.69
8705;BME280;4389;41.932;25.904;2023-05-16T10:35:42;100063.69;;;25.49;58.42
8705;BME280;4389;41.932;25.904;2023-05-16T10:38:10;100047.97;;;25.63;59.44
8705;BME280;4389;41.932;25.904;2023-05-16T10:40:38;100042.59;;;25.96;58.63
8705;BME280;4389;41.932;25.904;2023-05-16T10:43:06;100062.16;;;26.31;56.64
8705;BME280;4389;41.932;25.904;2023-05-16T10:45:34;100070.91;;;26.33;56.31
8705;BME280;4389;41.932;25.904;2023-05-16T10:48:05;100056.28;;;26.72;56.01
8705;BME280;4389;41.932;25.904;2023-05-16T10:50:36;100036.16;;;27.11;54.46
8705;BME280;4389;41.932;25.904;2023-05-16T10:53:15;100035.72;;;26.76;54.82
8705;BME280;4389;41.932;25.904;2023-05-16T10:55:48;100027.78;;;26.53;56.06
8705;BME280;4389;41.932;25.904;2023-05-16T10:58:21;100024.13;;;26.64;55.91
8705;BME280;4389;41.932;25.904;2023-05-16T11:00:48;100027.28;;;26.56;56.48
8705;BME280;4389;41.932;25.904;2023-05-16T11:03:21;100016.56;;;26.87;55.99
8705;BME280;4389;41.932;25.904;2023-05-16T11:05:58;100006.56;;;27.36;55.14
8705;BME280;4389;41.932;25.904;2023-05-16T11:08:27;100006.94;;;27.18;54.73
8705;BME280;4389;41.932;25.904;2023-05-16T11:13:54;100019.09;;;27.90;53.07
8705;BME280;4389;41.932;25.904;2023-05-16T11:16:28;100020.91;;;28.11;51.92
8705;BME280;4389;41.932;25.904;2023-05-16T11:19:03;100021.03;;;27.68;52.51
8705;BME280;4389;41.932;25.904;2023-05-16T11:22:05;100013.16;;;27.40;53.17
8705;BME280;4389;41.932;25.904;2023-05-16T11:24:33;100004.50;;;27.74;51.58
8705;BME280;4389;41.932;25.904;2023-05-16T11:27:01;99997.09;;;28.33;50.85
8705;BME280;4389;41.932;25.904;2023-05-16T11:29:30;99996.97;;;28.49;50.16
8705;BME280;4389;41.932;25.904;2023-05-16T11:31:58;100001.72;;;28.79;49.46
8705;BME280;4389;41.932;25.904;2023-05-16T11:34:25;99997.88;;;28.70;49.17
8705;BME280;4389;41.932;25.904;2023-05-16T11:36:52;99995.88;;;29.07;48.99
8705;BME280;4389;41.932;25.904;2023-05-16T11:39:22;99990.81;;;29.50;47.64
8705;BME280;4389;41.932;25.904;2023-05-16T11:41:49;99994.09;;;29.62;46.27
8705;BME280;4389;41.932;25.904;2023-05-16T11:44:16;99984.03;;;29.83;46.19
8705;BME280;4389;41.932;25.904;2023-05-16T11:46:43;99985.38;;;29.95;44.93
8705;BME280;4389;41.932;25.904;2023-05-16T11:49:11;99984.78;;;29.43;45.98
8705;BME280;4389;41.932;25.904;2023-05-16T11:51:38;99970.09;;;28.68;49.76
8705;BME280;4389;41.932;25.904;2023-05-16T11:54:05;99973.75;;;28.05;50.91
8705;BME280;4389;41.932;25.904;2023-05-16T11:56:35;99961.91;;;28.21;50.58
8705;BME280;4389;41.932;25.904;2023-05-16T11:59:02;99969.97;;;28.48;51.17
8705;BME280;4389;41.932;25.904;2023-05-16T12:01:33;99961.72;;;28.38;50.85
8705;BME280;4389;41.932;25.904;2023-05-16T12:04:01;99952.75;;;27.96;51.88
8705;BME280;4389;41.932;25.904;2023-05-16T12:06:28;99955.03;;;28.14;51.26
8705;BME280;4389;41.932;25.904;2023-05-16T12:08:55;99961.47;;;27.98;52.12
8705;BME280;4389;41.932;25.904;2023-05-16T12:11:22;99961.72;;;28.38;50.65
8705;BME280;4389;41.932;25.904;2023-05-16T12:13:51;99969.56;;;28.76;49.81
8705;BME280;4389;41.932;25.904;2023-05-16T12:16:19;99965.06;;;28.50;49.78
8705;BME280;4389;41.932;25.904;2023-05-16T12:18:46;99969.00;;;28.69;50.58
8705;BME280;4389;41.932;25.904;2023-05-16T12:21:14;99973.47;;;28.95;48.29
8705;BME280;4389;41.932;25.904;2023-05-16T12:23:41;99975.53;;;28.73;48.92
8705;BME280;4389;41.932;25.904;2023-05-16T12:26:08;99981.94;;;29.03;47.29
8705;BME280;4389;41.932;25.904;2023-05-16T12:28:35;99990.75;;;29.40;46.67
8705;BME280;4389;41.932;25.904;2023-05-16T12:31:10;99991.66;;;29.86;46.15
8705;BME280;4389;41.932;25.904;2023-05-16T12:33:44;99975.03;;;29.92;45.17
8705;BME280;4389;41.932;25.904;2023-05-16T12:36:12;99977.47;;;30.24;44.36
8705;BME280;4389;41.932;25.904;2023-05-16T12:38:41;99975.84;;;29.98;44.34
8705;BME280;4389;41.932;25.904;2023-05-16T12:41:16;99969.78;;;30.45;43.33
8705;BME280;4389;41.932;25.904;2023-05-16T12:43:44;99976.34;;;30.29;44.02
8705;BME280;4389;41.932;25.904;2023-05-16T12:46:13;99972.28;;;29.82;45.10
8705;BME280;4389;41.932;25.904;2023-05-16T12:48:40;99972.50;;;29.51;46.73
8705;BME280;4389;41.932;25.904;2023-05-16T12:51:12;99968.72;;;29.57;46.04
8705;BME280;4389;41.932;25.904;2023-05-16T12:53:42;99969.00;;;29.90;44.89
8705;BME280;4389;41.932;25.904;2023-05-16T12:56:12;99966.00;;;29.77;44.20
8705;BME280;4389;41.932;25.904;2023-05-16T12:58:40;99973.06;;;29.48;44.87
8705;BME280;4389;41.932;25.904;2023-05-16T13:01:07;99972.53;;;29.46;44.76
8705;BME280;4389;41.932;25.904;2023-05-16T13:03:35;99970.88;;;29.50;44.83
8705;BME280;4389;41.932;25.904;2023-05-16T13:06:03;99966.00;;;29.57;44.98